sensor_id;sensor_type;location;lat;lon;timestamp;pressure;altitude;pressure_sealevel;temperature;humidity
17855;BME280;9053;53.358;6.382;2022-08-18T00:02:14;101234.13;;;19.78;100.00
17855;BME280;9053;53.358;6.382;2022-08-18T00:04:51;101238.56;;;19.79;100.00
17855;BME280;9053;53.358;6.382;2022-08-18T00:07:25;101236.78;;;19.80;100.00
17855;BME280;9053;53.358;6.382;2022-08-18T00:09:56;101239.47;;;19.81;100.00
17855;BME280;9053;53.358;6.382;2022-08-18T00:12:29;101236.81;;;19.78;100.00
17855;BME280;9053;53.358;6.382;2022-08-18T00:14:59;101235.00;;;19.74;100.00
17855;BME280;9053;53.358;6.382;2022-08-18T00:17:34;101235.88;;;19.70;100.00
17855;BME280;9053;53.358;6.382;2022-08-18T00:20:07;101237.66;;;19.68;100.00
17855;BME280;9053;53.358;6.382;2022-08-18T00:22:38;101245.63;;;19.66;100.00
17855;BME280;9053;53.358;6.382;2022-08-18T00:25:10;101234.94;;;19.65;100.00
17855;BME280;9053;53.358;6.382;2022-08-18T00:27:40;101236.72;;;19.66;100.00
17855;BME280;9053;53.358;6.382;2022-08-18T00:30:13;101230.50;;;19.64;100.00
17855;BME280;9053;53.358;6.382;2022-08-18T00:32:49;101218.94;;;19.62;100.00
17855;BME280;9053;53.358;6.382;2022-08-18T00:35:21;101226.94;;;19.62;100.00
17855;BME280;9053;53.358;6.382;2022-08-18T00:37:57;101226.94;;;19.63;100.00
17855;BME280;9053;53.358;6.382;2022-08-18T00:40:29;101227.81;;;19.62;100.00
17855;BME280;9053;53.358;6.382;2022-08-18T00:43:05;101220.69;;;19.63;100.00
17855;BME280;9053;53.358;6.382;2022-08-18T00:45:41;101226.94;;;19.62;100.00
17855;BME280;9053;53.358;6.382;2022-08-18T00:48:13;101224.25;;;19.62;100.00
17855;BME280;9053;53.358;6.382;2022-08-18T00:50:48;101218.94;;;19.62;100.00
17855;BME280;9053;53.358;6.382;2022-08-18T00:53:24;101212.69;;;19.60;100.00
17855;BME280;9053;53.358;6.382;2022-08-18T00:55:58;101213.59;;;19.59;100.00
17855;BME280;9053;53.358;6.382;2022-08-18T00:58:32;101218.91;;;19.57;100.00
17855;BME280;9053;53.358;6.382;2022-08-18T01:01:05;101210.03;;;19.57;100.00
17855;BME280;9053;53.358;6.382;2022-08-18T01:03:39;101208.25;;;19.56;100.00
17855;BME280;9053;53.358;6.382;2022-08-18T01:06:14;101210.88;;;19.53;100.00
17855;BME280;9053;53.358;6.382;2022-08-18T01:08:45;101215.34;;;19.52;100.00
17855;BME280;9053;53.358;6.382;2022-08-18T01:11:15;101210.00;;;19.52;100.00
17855;BME280;9053;53.358;6.382;2022-08-18T01:13:45;101215.34;;;19.55;100.00
17855;BME280;9053;53.358;6.382;2022-08-18T01:16:14;101218.03;;;19.58;100.00
17855;BME280;9053;53.358;6.382;2022-08-18T01:19:00;101217.16;;;19.61;100.00
17855;BME280;9053;53.358;6.382;2022-08-18T01:21:46;101218.03;;;19.63;100.00
17855;BME280;9053;53.358;6.382;2022-08-18T01:24:26;101222.50;;;19.65;100.00
17855;BME280;9053;53.358;6.382;2022-08-18T01:27:10;101223.44;;;19.69;100.00
17855;BME280;9053;53.358;6.382;2022-08-18T01:29:44;101219.00;;;19.74;100.00
17855;BME280;9053;53.358;6.382;2022-08-18T01:32:15;101226.13;;;19.78;100.00
17855;BME280;9053;53.358;6.382;2022-08-18T01:34:47;101220.78;;;19.83;100.00
17855;BME280;9053;53.358;6.382;2022-08-18T01:37:20;101226.16;;;19.86;100.00
17855;BME280;9053;53.358;6.382;2022-08-18T01:39:53;101231.47;;;19.87;100.00
17855;BME280;9053;53.358;6.382;2022-08-18T01:42:43;101232.38;;;19.91;100.00
17855;BME280;9053;53.358;6.382;2022-08-18T01:45:14;101219.91;;;19.90;100.00
17855;BME280;9053;53.358;6.382;2022-08-18T01:47:46;101217.22;;;19.90;100.00
17855;BME280;9053;53.358;6.382;2022-08-18T01:50:17;101220.81;;;19.89;100.00
17855;BME280;9053;53.358;6.382;2022-08-18T01:52:46;101222.56;;;19.87;100.00
17855;BME280;9053;53.358;6.382;2022-08-18T01:55:21;101225.25;;;19.87;100.00
17855;BME280;9053;53.358;6.382;2022-08-18T01:57:54;101219.91;;;19.92;100.00
17855;BME280;9053;53.358;6.382;2022-08-18T02:00:24;101222.56;;;19.93;100.00
17855;BME280;9053;53.358;6.382;2022-08-18T02:02:54;101219.91;;;19.93;100.00
17855;BME280;9053;53.358;6.382;2022-08-18T02:05:32;101218.16;;;19.94;100.00
17855;BME280;9053;53.358;6.382;2022-08-18T02:08:03;101220.81;;;19.94;100.00
17855;BME280;9053;53.358;6.382;2022-08-18T02:10:37;101211.88;;;19.93;100.00
17855;BME280;9053;53.358;6.382;2022-08-18T02:13:07;101225.22;;;19.93;100.00
17855;BME280;9053;53.358;6.382;2022-08-18T02:15:37;101219.00;;;19.93;100.00
17855;BME280;9053;53.358;6.382;2022-08-18T02:18:13;101218.16;;;19.94;100.00
17855;BME280;9053;53.358;6.382;2022-08-18T02:21:08;101218.13;;;19.91;100.00
17855;BME280;9053;53.358;6.382;2022-08-18T02:23:39;101211.00;;;19.93;100.00
17855;BME280;9053;53.358;6.382;2022-08-18T02:26:21;101210.13;;;19.94;100.00
17855;BME280;9053;53.358;6.382;2022-08-18T02:28:51;101205.66;;;19.93;100.00
17855;BME280;9053;53.358;6.382;2022-08-18T02:31:23;101200.31;;;19.96;100.00
17855;BME280;9053;53.358;6.382;2022-08-18T02:33:53;101198.56;;;19.98;100.00
17855;BME280;9053;53.358;6.382;2022-08-18T02:36:23;101202.13;;;20.00;100.00
17855;BME280;9053;53.358;6.382;2022-08-18T02:38:53;101199.44;;;20.03;100.00
17855;BME280;9053;53.358;6.382;2022-08-18T02:41:28;101202.13;;;20.09;100.00
17855;BME280;9053;53.358;6.382;2022-08-18T02:43:59;101200.38;;;20.11;100.00
17855;BME280;9053;53.358;6.382;2022-08-18T02:46:29;101195.88;;;20.13;100.00
17855;BME280;9053;53.358;6.382;2022-08-18T02:48:59;101194.13;;;20.14;100.00
17855;BME280;9053;53.358;6.382;2022-08-18T02:51:30;101189.69;;;20.14;100.00
17855;BME280;9053;53.358;6.382;2022-08-18T02:53:59;101193.22;;;20.15;100.00
17855;BME280;9053;53.358;6.382;2022-08-18T02:56:33;101189.69;;;20.14;100.00
17855;BME280;9053;53.358;6.382;2022-08-18T02:59:11;101198.59;;;20.16;100.00
17855;BME280;9053;53.358;6.382;2022-08-18T03:01:44;101203.03;;;20.19;100.00
17855;BME280;9053;53.358;6.382;2022-08-18T03:04:16;101198.56;;;20.19;100.00
17855;BME280;9053;53.358;6.382;2022-08-18T03:06:54;101197.66;;;20.20;100.00
17855;BME280;9053;53.358;6.382;2022-08-18T03:09:24;101205.69;;;20.20;100.00
17855;BME280;9053;53.358;6.382;2022-08-18T03:11:57;101209.25;;;20.22;100.00
17855;BME280;9053;53.358;6.382;2022-08-18T03:14:28;101217.28;;;20.24;100.00
17855;BME280;9053;53.358;6.382;2022-08-18T03:16:58;101214.59;;;20.25;100.00
17855;BME280;9053;53.358;6.382;2022-08-18T03:19:28;101212.81;;;20.27;100.00
17855;BME280;9053;53.358;6.382;2022-08-18T03:22:00;101211.03;;;20.29;100.00
17855;BME280;9053;53.358;6.382;2022-08-18T03:24:51;101210.13;;;20.32;100.00
17855;BME280;9053;53.358;6.382;2022-08-18T03:27:24;101205.69;;;20.32;100.00
17855;BME280;9053;53.358;6.382;2022-08-18T03:29:54;101200.34;;;20.29;100.00
17855;BME280;9053;53.358;6.382;2022-08-18T03:32:24;101204.78;;;20.27;100.00
17855;BME280;9053;53.358;6.382;2022-08-18T03:34:54;101214.56;;;20.28;100.00
17855;BME280;9053;53.358;6.382;2022-08-18T03:37:25;101212.81;;;20.29;100.00
17855;BME280;9053;53.358;6.382;2022-08-18T03:39:54;101212.81;;;20.30;100.00
17855;BME280;9053;53.358;6.382;2022-08-18T03:42:27;101211.91;;;20.28;100.00
17855;BME280;9053;53.358;6.382;2022-08-18T03:44:57;101216.34;;;20.23;100.00
17855;BME280;9053;53.358;6.382;2022-08-18T03:47:43;101214.59;;;20.18;100.00
17855;BME280;9053;53.358;6.382;2022-08-18T03:50:18;101213.72;;;20.14;100.00
17855;BME280;9053;53.358;6.382;2022-08-18T03:52:51;101216.38;;;20.11;100.00
17855;BME280;9053;53.358;6.382;2022-08-18T03:55:21;101216.38;;;20.11;100.00
17855;BME280;9053;53.358;6.382;2022-08-18T03:57:57;101220.81;;;20.12;100.00
17855;BME280;9053;53.358;6.382;2022-08-18T04:00:29;101222.59;;;20.15;100.00
17855;BME280;9053;53.358;6.382;2022-08-18T04:03:01;101219.03;;;20.14;100.00
17855;BME280;9053;53.358;6.382;2022-08-18T04:05:31;101219.94;;;20.16;100.00
17855;BME280;9053;53.358;6.382;2022-08-18T04:08:02;101223.47;;;20.18;100.00
17855;BME280;9053;53.358;6.382;2022-08-18T04:10:33;101211.91;;;20.18;100.00
17855;BME280;9053;53.358;6.382;2022-08-18T04:13:06;101220.81;;;20.15;100.00
17855;BME280;9053;53.358;6.382;2022-08-18T04:15:36;101224.38;;;20.14;100.00
17855;BME280;9053;53.358;6.382;2022-08-18T04:18:06;101225.25;;;20.13;100.00
17855;BME280;9053;53.358;6.382;2022-08-18T04:20:38;101225.28;;;20.12;100.00
17855;BME280;9053;53.358;6.382;2022-08-18T04:23:25;101227.94;;;20.12;100.00
17855;BME280;9053;53.358;6.382;2022-08-18T04:26:05;101227.06;;;20.11;100.00
17855;BME280;9053;53.358;6.382;2022-08-18T04:28:47;101225.28;;;20.12;100.00
17855;BME280;9053;53.358;6.382;2022-08-18T04:31:17;101241.28;;;20.13;100.00
17855;BME280;9053;53.358;6.382;2022-08-18T04:33:50;101246.66;;;20.16;100.00
17855;BME280;9053;53.358;6.382;2022-08-18T04:36:20;101245.75;;;20.17;100.00
17855;BME280;9053;53.358;6.382;2022-08-18T04:38:50;101246.66;;;20.19;100.00
17855;BME280;9053;53.358;6.382;2022-08-18T04:41:23;101245.75;;;20.22;100.00
17855;BME280;9053;53.358;6.382;2022-08-18T04:43:56;101240.41;;;20.26;100.00
17855;BME280;9053;53.358;6.382;2022-08-18T04:46:27;101239.50;;;20.27;100.00
17855;BME280;9053;53.358;6.382;2022-08-18T04:48:58;101250.19;;;20.27;100.00
17855;BME280;9053;53.358;6.382;2022-08-18T04:51:28;101241.28;;;20.28;100.00
17855;BME280;9053;53.358;6.382;2022-08-18T04:54:18;101243.09;;;20.26;100.00
17855;BME280;9053;53.358;6.382;2022-08-18T04:56:45;101245.75;;;20.29;100.00
17855;BME280;9053;53.358;6.382;2022-08-18T04:59:17;101244.88;;;20.34;100.00
17855;BME280;9053;53.358;6.382;2022-08-18T05:01:47;101248.41;;;20.36;100.00
17855;BME280;9053;53.358;6.382;2022-08-18T05:04:17;101252.88;;;20.40;100.00
17855;BME280;9053;53.358;6.382;2022-08-18T05:06:47;101253.78;;;20.42;100.00
17855;BME280;9053;53.358;6.382;2022-08-18T05:09:17;101258.22;;;20.40;100.00
17855;BME280;9053;53.358;6.382;2022-08-18T05:11:49;101251.97;;;20.38;100.00
17855;BME280;9053;53.358;6.382;2022-08-18T05:14:21;101251.97;;;20.38;100.00
17855;BME280;9053;53.358;6.382;2022-08-18T05:16:51;101260.00;;;20.38;100.00
17855;BME280;9053;53.358;6.382;2022-08-18T05:19:21;101266.25;;;20.34;100.00
17855;BME280;9053;53.358;6.382;2022-08-18T05:21:53;101270.69;;;20.30;100.00
17855;BME280;9053;53.358;6.382;2022-08-18T05:24:28;101267.13;;;20.29;100.00
17855;BME280;9053;53.358;6.382;2022-08-18T05:27:04;101274.25;;;20.29;100.00
17855;BME280;9053;53.358;6.382;2022-08-18T05:29:36;101268.00;;;20.28;100.00
17855;BME280;9053;53.358;6.382;2022-08-18T05:32:12;101265.31;;;20.28;100.00
17855;BME280;9053;53.358;6.382;2022-08-18T05:35:03;101267.09;;;20.28;100.00
17855;BME280;9053;53.358;6.382;2022-08-18T05:37:41;101274.25;;;20.29;100.00
17855;BME280;9053;53.358;6.382;2022-08-18T05:40:21;101268.88;;;20.26;100.00
17855;BME280;9053;53.358;6.382;2022-08-18T05:42:53;101273.34;;;20.25;100.00
17855;BME280;9053;53.358;6.382;2022-08-18T05:45:28;101272.47;;;20.26;100.00
17855;BME280;9053;53.358;6.382;2022-08-18T05:48:00;101278.69;;;20.28;100.00
17855;BME280;9053;53.358;6.382;2022-08-18T05:50:32;101283.13;;;20.25;100.00
17855;BME280;9053;53.358;6.382;2022-08-18T05:53:05;101284.91;;;20.20;100.00
17855;BME280;9053;53.358;6.382;2022-08-18T05:55:43;101283.13;;;20.16;100.00
17855;BME280;9053;53.358;6.382;2022-08-18T05:58:40;101278.69;;;20.08;100.00
17855;BME280;9053;53.358;6.382;2022-08-18T06:01:16;101279.56;;;20.04;100.00
17855;BME280;9053;53.358;6.382;2022-08-18T06:03:49;101275.09;;;19.99;100.00
17855;BME280;9053;53.358;6.382;2022-08-18T06:06:24;101274.19;;;19.95;100.00
17855;BME280;9053;53.358;6.382;2022-08-18T06:08:57;101280.41;;;19.89;100.00
17855;BME280;9053;53.358;6.382;2022-08-18T06:11:31;101284.81;;;19.83;100.00
17855;BME280;9053;53.358;6.382;2022-08-18T06:14:01;101292.84;;;19.78;100.00
17855;BME280;9053;53.358;6.382;2022-08-18T06:16:48;101291.03;;;19.71;100.00
17855;BME280;9053;53.358;6.382;2022-08-18T06:19:30;101288.31;;;19.63;100.00
17855;BME280;9053;53.358;6.382;2022-08-18T06:22:12;101290.06;;;19.61;100.00
17855;BME280;9053;53.358;6.382;2022-08-18T06:24:51;101285.63;;;19.56;100.00
17855;BME280;9053;53.358;6.382;2022-08-18T06:27:28;101282.91;;;19.50;100.00
17855;BME280;9053;53.358;6.382;2022-08-18T06:30:10;101293.56;;;19.50;100.00
17855;BME280;9053;53.358;6.382;2022-08-18T06:32:54;101290.91;;;19.53;100.00
17855;BME280;9053;53.358;6.382;2022-08-18T06:35:33;101296.25;;;19.53;100.00
17855;BME280;9053;53.358;6.382;2022-08-18T06:38:14;101298.06;;;19.51;100.00
17855;BME280;9053;53.358;6.382;2022-08-18T06:41:00;101299.81;;;19.52;100.00
17855;BME280;9053;53.358;6.382;2022-08-18T06:43:33;101298.06;;;19.54;100.00
17855;BME280;9053;53.358;6.382;2022-08-18T06:46:08;101302.50;;;19.55;100.00
17855;BME280;9053;53.358;6.382;2022-08-18T06:48:50;101301.59;;;19.53;100.00
17855;BME280;9053;53.358;6.382;2022-08-18T06:51:26;101308.69;;;19.52;100.00
17855;BME280;9053;53.358;6.382;2022-08-18T06:53:58;101306.03;;;19.55;100.00
17855;BME280;9053;53.358;6.382;2022-08-18T06:56:43;101308.72;;;19.57;100.00
17855;BME280;9053;53.358;6.382;2022-08-18T06:59:18;101301.63;;;19.56;100.00
17855;BME280;9053;53.358;6.382;2022-08-18T07:01:53;101308.72;;;19.54;100.00
17855;BME280;9053;53.358;6.382;2022-08-18T07:04:39;101309.59;;;19.51;100.00
17855;BME280;9053;53.358;6.382;2022-08-18T07:07:19;101310.47;;;19.49;100.00
17855;BME280;9053;53.358;6.382;2022-08-18T07:09:51;101317.56;;;19.45;100.00
17855;BME280;9053;53.358;6.382;2022-08-18T07:12:23;101312.22;;;19.45;100.00
17855;BME280;9053;53.358;6.382;2022-08-18T07:15:00;101314.91;;;19.43;100.00
17855;BME280;9053;53.358;6.382;2022-08-18T07:17:34;101318.44;;;19.39;100.00
17855;BME280;9053;53.358;6.382;2022-08-18T07:20:17;101319.31;;;19.40;100.00
17855;BME280;9053;53.358;6.382;2022-08-18T07:22:54;101324.66;;;19.40;100.00
17855;BME280;9053;53.358;6.382;2022-08-18T07:25:28;101322.03;;;19.43;100.00
17855;BME280;9053;53.358;6.382;2022-08-18T07:27:58;101328.25;;;19.43;100.00
17855;BME280;9053;53.358;6.382;2022-08-18T07:30:32;101327.34;;;19.44;100.00
17855;BME280;9053;53.358;6.382;2022-08-18T07:33:11;101333.59;;;19.46;100.00
17855;BME280;9053;53.358;6.382;2022-08-18T07:35:47;101333.59;;;19.50;100.00
17855;BME280;9053;53.358;6.382;2022-08-18T07:38:28;101334.50;;;19.53;100.00
17855;BME280;9053;53.358;6.382;2022-08-18T07:41:18;101339.91;;;19.64;100.00
17855;BME280;9053;53.358;6.382;2022-08-18T07:43:57;101339.97;;;19.72;100.00
17855;BME280;9053;53.358;6.382;2022-08-18T07:46:50;101348.00;;;19.79;100.00
17855;BME280;9053;53.358;6.382;2022-08-18T07:49:23;101348.03;;;19.84;100.00
17855;BME280;9053;53.358;6.382;2022-08-18T07:52:02;101340.00;;;19.87;100.00
17855;BME280;9053;53.358;6.382;2022-08-18T07:55:00;101340.91;;;19.91;100.00
17855;BME280;9053;53.358;6.382;2022-08-18T07:57:43;101333.78;;;19.93;100.00
17855;BME280;9053;53.358;6.382;2022-08-18T08:00:20;101340.06;;;19.96;100.00
17855;BME280;9053;53.358;6.382;2022-08-18T08:03:24;101332.97;;;20.06;100.00
17855;BME280;9053;53.358;6.382;2022-08-18T08:06:04;101336.53;;;20.17;100.00
17855;BME280;9053;53.358;6.382;2022-08-18T08:08:42;101339.22;;;20.36;100.00
17855;BME280;9053;53.358;6.382;2022-08-18T08:11:22;101344.59;;;20.49;100.00
17855;BME280;9053;53.358;6.382;2022-08-18T08:14:08;101334.81;;;20.53;100.00
17855;BME280;9053;53.358;6.382;2022-08-18T08:16:45;101338.41;;;20.57;100.00
17855;BME280;9053;53.358;6.382;2022-08-18T08:19:52;101341.09;;;20.57;100.00
17855;BME280;9053;53.358;6.382;2022-08-18T08:22:30;101334.81;;;20.56;100.00
17855;BME280;9053;53.358;6.382;2022-08-18T08:25:09;101337.53;;;20.62;100.00
17855;BME280;9053;53.358;6.382;2022-08-18T08:28:07;101338.41;;;20.72;100.00
17855;BME280;9053;53.358;6.382;2022-08-18T08:30:45;101358.00;;;20.77;100.00
17855;BME280;9053;53.358;6.382;2022-08-18T08:33:21;101364.25;;;20.81;100.00
17855;BME280;9053;53.358;6.382;2022-08-18T08:35:55;101366.91;;;20.81;100.00
17855;BME280;9053;53.358;6.382;2022-08-18T08:38:30;101367.78;;;20.81;100.00
17855;BME280;9053;53.358;6.382;2022-08-18T08:41:16;101373.16;;;20.80;100.00
17855;BME280;9053;53.358;6.382;2022-08-18T08:43:53;101368.72;;;20.77;100.00
17855;BME280;9053;53.358;6.382;2022-08-18T08:46:31;101374.94;;;20.78;100.00
17855;BME280;9053;53.358;6.382;2022-08-18T08:49:10;101388.31;;;20.78;100.00
17855;BME280;9053;53.358;6.382;2022-08-18T08:51:49;101377.63;;;20.78;100.00
17855;BME280;9053;53.358;6.382;2022-08-18T08:54:25;101386.53;;;20.75;100.00
17855;BME280;9053;53.358;6.382;2022-08-18T08:57:03;101388.28;;;20.73;100.00
17855;BME280;9053;53.358;6.382;2022-08-18T08:59:36;101390.97;;;20.74;100.00
17855;BME280;9053;53.358;6.382;2022-08-18T09:02:31;101396.34;;;20.74;100.00
17855;BME280;9053;53.358;6.382;2022-08-18T09:05:17;101391.88;;;20.75;100.00
17855;BME280;9053;53.358;6.382;2022-08-18T09:08:09;101383.84;;;20.86;100.00
17855;BME280;9053;53.358;6.382;2022-08-18T09:11:08;101385.63;;;20.98;100.00
17855;BME280;9053;53.358;6.382;2022-08-18T09:13:58;101382.97;;;21.07;100.00
17855;BME280;9053;53.358;6.382;2022-08-18T09:16:42;101383.81;;;21.13;100.00
17855;BME280;9053;53.358;6.382;2022-08-18T09:19:29;101388.28;;;21.19;100.00
17855;BME280;9053;53.358;6.382;2022-08-18T09:22:09;101398.06;;;21.26;100.00
17855;BME280;9053;53.358;6.382;2022-08-18T09:24:46;101390.03;;;21.31;100.00
17855;BME280;9053;53.358;6.382;2022-08-18T09:27:29;101386.47;;;21.35;100.00
17855;BME280;9053;53.358;6.382;2022-08-18T09:30:38;101390.94;;;21.33;100.00
17855;BME280;9053;53.358;6.382;2022-08-18T09:33:18;101393.63;;;21.34;100.00
17855;BME280;9053;53.358;6.382;2022-08-18T09:35:59;101387.38;;;21.37;100.00
17855;BME280;9053;53.358;6.382;2022-08-18T09:38:37;101378.47;;;21.41;100.00
17855;BME280;9053;53.358;6.382;2022-08-18T09:41:32;101390.91;;;21.56;100.00
17855;BME280;9053;53.358;6.382;2022-08-18T09:44:05;101386.41;;;21.72;100.00
17855;BME280;9053;53.358;6.382;2022-08-18T09:47:01;101385.47;;;21.82;100.00
17855;BME280;9053;53.358;6.382;2022-08-18T09:49:44;101392.56;;;21.89;100.00
17855;BME280;9053;53.358;6.382;2022-08-18T09:55:52;101394.34;;;22.02;100.00
17855;BME280;9053;53.358;6.382;2022-08-18T09:58:52;101402.31;;;22.09;100.00
17855;BME280;9053;53.358;6.382;2022-08-18T10:01:37;101387.13;;;22.14;100.00
17855;BME280;9053;53.358;6.382;2022-08-18T10:04:40;101394.25;;;22.12;100.00
17855;BME280;9053;53.358;6.382;2022-08-18T10:07:20;101390.72;;;22.07;100.00
17855;BME280;9053;53.358;6.382;2022-08-18T10:10:08;101403.22;;;22.04;100.00
17855;BME280;9053;53.358;6.382;2022-08-18T10:13:07;101408.59;;;22.08;100.00
17855;BME280;9053;53.358;6.382;2022-08-18T10:16:02;101406.78;;;22.13;100.00
17855;BME280;9053;53.358;6.382;2022-08-18T10:18:56;101406.78;;;22.13;100.00
17855;BME280;9053;53.358;6.382;2022-08-18T10:22:02;101413.91;;;22.11;100.00
17855;BME280;9053;53.358;6.382;2022-08-18T10:24:36;101412.19;;;22.05;100.00
17855;BME280;9053;53.358;6.382;2022-08-18T10:27:35;101413.97;;;22.01;100.00
17855;BME280;9053;53.358;6.382;2022-08-18T10:30:46;101411.31;;;21.95;100.00
17855;BME280;9053;53.358;6.382;2022-08-18T10:33:54;101413.09;;;21.98;100.00
17855;BME280;9053;53.358;6.382;2022-08-18T10:36:49;101411.28;;;21.97;100.00
17855;BME280;9053;53.358;6.382;2022-08-18T10:39:41;101413.97;;;21.92;100.00
17855;BME280;9053;53.358;6.382;2022-08-18T10:42:22;101415.81;;;21.90;100.00
17855;BME280;9053;53.358;6.382;2022-08-18T10:45:19;101413.13;;;21.86;100.00
17855;BME280;9053;53.358;6.382;2022-08-18T10:47:58;101414.94;;;21.79;100.00
17855;BME280;9053;53.358;6.382;2022-08-18T10:50:48;101414.06;;;21.71;100.00
17855;BME280;9053;53.358;6.382;2022-08-18T10:53:26;101415.88;;;21.66;100.00
17855;BME280;9053;53.358;6.382;2022-08-18T10:56:10;101421.22;;;21.66;100.00
17855;BME280;9053;53.358;6.382;2022-08-18T11:02:10;101409.63;;;21.68;100.00
17855;BME280;9053;53.358;6.382;2022-08-18T11:04:45;101410.50;;;21.69;100.00
17855;BME280;9053;53.358;6.382;2022-08-18T11:07:27;101415.84;;;21.73;100.00
17855;BME280;9053;53.358;6.382;2022-08-18T11:10:15;101410.47;;;21.79;100.00
17855;BME280;9053;53.358;6.382;2022-08-18T11:13:12;101417.59;;;21.83;100.00
17855;BME280;9053;53.358;6.382;2022-08-18T11:15:55;101423.84;;;21.86;100.00
17855;BME280;9053;53.358;6.382;2022-08-18T11:18:39;101420.28;;;21.85;100.00
17855;BME280;9053;53.358;6.382;2022-08-18T11:21:24;101422.03;;;21.89;100.00
17855;BME280;9053;53.358;6.382;2022-08-18T11:24:09;101427.41;;;21.85;100.00
17855;BME280;9053;53.358;6.382;2022-08-18T11:26:46;101426.53;;;21.79;100.00
17855;BME280;9053;53.358;6.382;2022-08-18T11:29:30;101426.53;;;21.79;100.00
17855;BME280;9053;53.358;6.382;2022-08-18T11:32:05;101425.66;;;21.80;100.00
17855;BME280;9053;53.358;6.382;2022-08-18T11:35:02;101426.53;;;21.79;100.00
17855;BME280;9053;53.358;6.382;2022-08-18T11:37:36;101426.56;;;21.78;100.00
17855;BME280;9053;53.358;6.382;2022-08-18T11:40:34;101426.56;;;21.73;100.00
17855;BME280;9053;53.358;6.382;2022-08-18T11:43:29;101417.63;;;21.71;100.00
17855;BME280;9053;53.358;6.382;2022-08-18T11:46:13;101430.13;;;21.74;100.00
17855;BME280;9053;53.358;6.382;2022-08-18T11:48:53;101420.31;;;21.73;100.00
17855;BME280;9053;53.358;6.382;2022-08-18T11:51:25;101417.63;;;21.71;100.00
17855;BME280;9053;53.358;6.382;2022-08-18T11:53:57;101427.47;;;21.71;100.00
17855;BME280;9053;53.358;6.382;2022-08-18T11:56:30;101419.44;;;21.68;100.00
17855;BME280;9053;53.358;6.382;2022-08-18T11:59:32;101424.81;;;21.68;100.00
17855;BME280;9053;53.358;6.382;2022-08-18T12:02:24;101425.69;;;21.65;100.00
17855;BME280;9053;53.358;6.382;2022-08-18T12:04:58;101426.59;;;21.66;100.00
17855;BME280;9053;53.358;6.382;2022-08-18T12:07:39;101427.44;;;21.77;100.00
17855;BME280;9053;53.358;6.382;2022-08-18T12:10:25;101427.38;;;21.89;100.00
17855;BME280;9053;53.358;6.382;2022-08-18T12:12:56;101412.19;;;21.96;100.00
17855;BME280;9053;53.358;6.382;2022-08-18T12:15:32;101421.09;;;22.01;99.96
17855;BME280;9053;53.358;6.382;2022-08-18T12:18:12;101425.56;;;22.05;99.92
17855;BME280;9053;53.358;6.382;2022-08-18T12:21:03;101413.94;;;22.08;99.49
17855;BME280;9053;53.358;6.382;2022-08-18T12:23:35;101413.91;;;22.11;99.15
17855;BME280;9053;53.358;6.382;2022-08-18T12:26:18;101416.56;;;22.12;98.77
17855;BME280;9053;53.358;6.382;2022-08-18T12:29:08;101412.13;;;22.13;98.30
17855;BME280;9053;53.358;6.382;2022-08-18T12:31:44;101406.75;;;22.14;97.94
17855;BME280;9053;53.358;6.382;2022-08-18T12:34:16;101405.88;;;22.15;97.74
17855;BME280;9053;53.358;6.382;2022-08-18T12:36:54;101413.00;;;22.15;97.27
17855;BME280;9053;53.358;6.382;2022-08-18T12:39:24;101402.28;;;22.15;96.91
17855;BME280;9053;53.358;6.382;2022-08-18T12:41:54;101402.28;;;22.16;96.65
17855;BME280;9053;53.358;6.382;2022-08-18T12:44:25;101396.03;;;22.16;96.26
17855;BME280;9053;53.358;6.382;2022-08-18T12:46:59;101392.47;;;22.21;96.18
17855;BME280;9053;53.358;6.382;2022-08-18T12:49:32;101387.09;;;22.23;96.04
17855;BME280;9053;53.358;6.382;2022-08-18T12:52:03;101374.59;;;22.22;95.65
17855;BME280;9053;53.358;6.382;2022-08-18T12:54:37;101367.44;;;22.25;95.68
17855;BME280;9053;53.358;6.382;2022-08-18T12:57:24;101372.75;;;22.33;95.50
17855;BME280;9053;53.358;6.382;2022-08-18T13:00:15;101374.50;;;22.37;95.47
17855;BME280;9053;53.358;6.382;2022-08-18T13:02:57;101372.69;;;22.45;95.56
17855;BME280;9053;53.358;6.382;2022-08-18T13:05:27;101382.44;;;22.53;95.53
17855;BME280;9053;53.358;6.382;2022-08-18T13:08:01;101385.13;;;22.56;95.36
17855;BME280;9053;53.358;6.382;2022-08-18T13:10:31;101377.91;;;22.58;94.99
17855;BME280;9053;53.358;6.382;2022-08-18T13:13:11;101377.91;;;22.58;94.56
17855;BME280;9053;53.358;6.382;2022-08-18T13:15:41;101374.38;;;22.56;94.38
17855;BME280;9053;53.358;6.382;2022-08-18T13:18:27;101376.16;;;22.57;93.88
17855;BME280;9053;53.358;6.382;2022-08-18T13:20:56;101369.88;;;22.59;93.88
17855;BME280;9053;53.358;6.382;2022-08-18T13:23:26;101373.41;;;22.66;93.57
17855;BME280;9053;53.358;6.382;2022-08-18T13:25:59;101366.19;;;22.73;93.57
17855;BME280;9053;53.358;6.382;2022-08-18T13:28:30;101371.56;;;22.74;93.47
17855;BME280;9053;53.358;6.382;2022-08-18T13:31:20;101372.47;;;22.73;92.90
17855;BME280;9053;53.358;6.382;2022-08-18T13:33:54;101364.44;;;22.70;92.71
17855;BME280;9053;53.358;6.382;2022-08-18T13:36:29;101368.03;;;22.67;92.32
17855;BME280;9053;53.358;6.382;2022-08-18T13:39:15;101367.09;;;22.72;92.58
17855;BME280;9053;53.358;6.382;2022-08-18T13:41:51;101371.56;;;22.76;92.50
17855;BME280;9053;53.358;6.382;2022-08-18T13:44:26;101361.72;;;22.75;92.38
17855;BME280;9053;53.358;6.382;2022-08-18T13:46:56;101374.25;;;22.74;92.30
17855;BME280;9053;53.358;6.382;2022-08-18T13:49:29;101361.75;;;22.70;92.17
17855;BME280;9053;53.358;6.382;2022-08-18T13:52:01;101363.56;;;22.68;91.97
17855;BME280;9053;53.358;6.382;2022-08-18T13:54:51;101364.47;;;22.68;91.83